createdAt,value
2022-12-27T00:02:10.011Z,100819.66
2022-12-27T00:04:39.727Z,100833.50
2022-12-27T00:07:11.098Z,100833.50
2022-12-27T00:09:40.350Z,100836.91
2022-12-27T00:12:09.908Z,100846.38
2022-12-27T00:14:38.693Z,100839.38
2022-12-27T00:17:07.827Z,100839.38
2022-12-27T00:19:36.895Z,100841.88
2022-12-27T00:22:06.522Z,100848.66
2022-12-27T00:24:36.995Z,100848.66
2022-12-27T00:27:06.102Z,100849.53
2022-12-27T00:29:35.184Z,100845.19
2022-12-27T00:32:05.087Z,100850.44
2022-12-27T00:34:34.245Z,100845.25
2022-12-27T00:37:03.296Z,100847.06
2022-12-27T00:39:32.539Z,100847.06
2022-12-27T00:42:03.730Z,100849.66
2022-12-27T00:44:32.327Z,100850.44
2022-12-27T00:47:00.956Z,100847.84
2022-12-27T00:49:29.413Z,100853.84
2022-12-27T00:51:58.092Z,100853.72
2022-12-27T00:54:26.895Z,100843.28
2022-12-27T00:56:55.495Z,100853.66
2022-12-27T00:59:26.042Z,100862.19
2022-12-27T01:01:55.193Z,100862.19
2022-12-27T01:04:24.287Z,100867.38
2022-12-27T01:06:53.378Z,100861.31
2022-12-27T01:09:23.671Z,100857.00
2022-12-27T01:11:53.052Z,100854.41
2022-12-27T01:14:21.756Z,100854.41
2022-12-27T01:16:52.234Z,100863.09
2022-12-27T01:19:21.067Z,100867.28
2022-12-27T01:21:49.913Z,100863.78
2022-12-27T01:24:18.808Z,100860.31
2022-12-27T01:26:47.419Z,100863.78
2022-12-27T01:29:16.128Z,100862.00
2022-12-27T01:31:45.066Z,100875.75
2022-12-27T01:34:15.765Z,100879.25
2022-12-27T01:36:44.339Z,100873.16
2022-12-27T01:39:14.227Z,100884.41
2022-12-27T01:42:02.367Z,100887.91
2022-12-27T01:44:54.099Z,100894.84
2022-12-27T01:47:35.355Z,100897.38
2022-12-27T01:50:11.309Z,100893.06
2022-12-27T01:52:44.636Z,100898.38
2022-12-27T01:55:20.564Z,100901.66
2022-12-27T01:57:53.730Z,100897.38
2022-12-27T02:00:23.752Z,100900.03
2022-12-27T02:02:53.795Z,100898.25
2022-12-27T02:05:26.204Z,100905.22
2022-12-27T02:08:07.035Z,100912.97
2022-12-27T02:10:36.601Z,100910.41
2022-12-27T02:13:07.151Z,100922.56
2022-12-27T02:15:35.983Z,100918.28
2022-12-27T02:18:04.853Z,100926.03
2022-12-27T02:20:52.520Z,100920.75
2022-12-27T02:24:02.664Z,100932.03
2022-12-27T02:27:01.222Z,100915.56
2022-12-27T02:29:48.742Z,100925.94
2022-12-27T02:32:24.162Z,100916.50
2022-12-27T02:35:03.230Z,100927.75
2022-12-27T02:37:35.474Z,100918.28
2022-12-27T02:40:26.603Z,100916.56
2022-12-27T02:43:14.747Z,100929.53
2022-12-27T02:46:10.393Z,100930.41
2022-12-27T02:48:56.547Z,100915.88
2022-12-27T02:51:56.444Z,100917.59
2022-12-27T02:54:48.244Z,100909.03
2022-12-27T02:57:25.526Z,100916.88
2022-12-27T03:00:24.510Z,100921.28
2022-12-27T03:03:24.399Z,100918.69
2022-12-27T03:06:29.765Z,100913.59
2022-12-27T03:09:10.138Z,100921.50
2022-12-27T03:12:07.303Z,100933.53
2022-12-27T03:14:57.063Z,100931.94
2022-12-27T03:17:31.096Z,100926.75
2022-12-27T03:20:39.088Z,100938.13
2022-12-27T03:23:27.584Z,100933.81
2022-12-27T03:25:59.417Z,100932.16
2022-12-27T03:29:00.623Z,100937.53
2022-12-27T03:31:51.041Z,100934.13
2022-12-27T03:34:33.220Z,100936.84
2022-12-27T03:37:26.115Z,100933.44
2022-12-27T03:40:04.932Z,100934.31
2022-12-27T03:42:56.472Z,100930.06
2022-12-27T03:45:45.326Z,100932.72
2022-12-27T03:48:20.993Z,100933.66
2022-12-27T03:50:55.715Z,100933.66
2022-12-27T03:53:27.789Z,100935.44
2022-12-27T03:55:56.464Z,100931.97
2022-12-27T03:58:26.683Z,100946.69
2022-12-27T04:00:56.741Z,100937.22
2022-12-27T04:03:28.105Z,100932.97
2022-12-27T04:05:57.331Z,100943.53
2022-12-27T04:08:45.488Z,100936.53
2022-12-27T04:11:32.026Z,100924.50
2022-12-27T04:14:18.569Z,100930.56
2022-12-27T04:17:05.007Z,100921.91
2022-12-27T04:19:51.663Z,100924.50
2022-12-27T04:22:38.297Z,100927.97
2022-12-27T04:25:27.258Z,100922.78
2022-12-27T04:28:14.922Z,100934.94
2022-12-27T04:31:01.134Z,100921.22
2022-12-27T04:33:47.675Z,100928.97
2022-12-27T04:36:18.327Z,100929.94
2022-12-27T04:38:48.089Z,100930.16
2022-12-27T04:41:36.226Z,100948.38
2022-12-27T04:44:22.819Z,100937.31
2022-12-27T04:47:17.576Z,100933.16
2022-12-27T04:50:04.256Z,100935.03
2022-12-27T04:52:52.497Z,100934.34
2022-12-27T04:55:24.229Z,100943.13
2022-12-27T04:57:55.585Z,100953.59
2022-12-27T05:00:44.466Z,100947.72
2022-12-27T05:03:16.254Z,100955.69
2022-12-27T05:05:46.180Z,100966.25
2022-12-27T05:08:32.782Z,100968.13
2022-12-27T05:11:20.183Z,100968.25
2022-12-27T05:14:02.917Z,100980.59
2022-12-27T05:16:34.134Z,100972.91
2022-12-27T05:19:03.348Z,100980.81
2022-12-27T05:21:37.301Z,100979.19
2022-12-27T05:24:25.178Z,100985.47
2022-12-27T05:26:57.746Z,100996.94
2022-12-27T05:29:30.537Z,100996.16
2022-12-27T05:32:00.280Z,101003.22
2022-12-27T05:34:30.675Z,101001.66
2022-12-27T05:37:00.545Z,100993.06
2022-12-27T05:39:30.027Z,101015.69
2022-12-27T05:41:59.568Z,101004.50
2022-12-27T05:44:30.058Z,101014.19
2022-12-27T05:46:59.250Z,101009.91
2022-12-27T05:49:29.314Z,101009.09
2022-12-27T05:51:58.572Z,101014.28
2022-12-27T05:54:28.484Z,101009.09
2022-12-27T05:56:57.530Z,101005.63
2022-12-27T05:59:26.373Z,101020.28
2022-12-27T06:01:57.604Z,101015.88
2022-12-27T06:04:27.631Z,101015.81
2022-12-27T06:06:57.205Z,101020.06
2022-12-27T06:09:26.572Z,101023.47
2022-12-27T06:11:56.107Z,101022.41
2022-12-27T06:14:25.975Z,101012.03
2022-12-27T06:16:58.117Z,101020.50
2022-12-27T06:19:26.872Z,101018.69
2022-12-27T06:21:57.932Z,101021.16
2022-12-27T06:24:26.591Z,101012.50
2022-12-27T06:26:55.704Z,101033.25
2022-12-27T06:29:26.091Z,101024.47
2022-12-27T06:31:57.835Z,101032.16
2022-12-27T06:34:27.390Z,101037.22
2022-12-27T06:36:56.643Z,101038.81
2022-12-27T06:39:26.372Z,101043.13
2022-12-27T06:41:56.615Z,101033.56
2022-12-27T06:44:26.998Z,101050.69
2022-12-27T06:46:58.407Z,101045.41
2022-12-27T06:49:30.790Z,101060.88
2022-12-27T06:52:01.226Z,101057.28
2022-12-27T06:54:31.345Z,101049.38
2022-12-27T06:57:00.754Z,101046.72
2022-12-27T06:59:31.051Z,101054.38
2022-12-27T07:02:01.746Z,101047.31
2022-12-27T07:04:30.861Z,101053.28
2022-12-27T07:06:59.753Z,101056.59
2022-12-27T07:09:29.063Z,101062.53
2022-12-27T07:11:57.618Z,101065.06
2022-12-27T07:14:26.268Z,101058.94
2022-12-27T07:16:54.858Z,101063.16
2022-12-27T07:19:25.908Z,101070.00
2022-12-27T07:21:55.575Z,101077.69
2022-12-27T07:24:28.049Z,101074.09
2022-12-27T07:26:58.142Z,101076.59
2022-12-27T07:29:27.889Z,101079.97
2022-12-27T07:31:56.938Z,101086.06
2022-12-27T07:34:27.855Z,101099.81
2022-12-27T07:36:56.590Z,101104.06
2022-12-27T07:39:25.280Z,101095.34
2022-12-27T07:41:54.346Z,101101.41
2022-12-27T07:44:23.440Z,101101.41
2022-12-27T07:46:52.883Z,101098.69
2022-12-27T07:49:21.963Z,101106.47
2022-12-27T07:51:52.565Z,101109.94
2022-12-27T07:54:21.825Z,101108.28
2022-12-27T07:56:50.937Z,101114.38
2022-12-27T07:59:20.265Z,101104.78
2022-12-27T08:02:08.845Z,101104.78
2022-12-27T08:04:46.224Z,101109.94
2022-12-27T08:07:21.010Z,101122.13
2022-12-27T08:09:51.851Z,101123.91
2022-12-27T08:12:22.312Z,101127.53
2022-12-27T08:14:53.017Z,101113.78
2022-12-27T08:17:25.461Z,101120.75
2022-12-27T08:19:57.239Z,101125.94
2022-12-27T08:22:28.504Z,101129.53
2022-12-27T08:24:58.044Z,101132.22
2022-12-27T08:27:29.228Z,101133.03
2022-12-27T08:29:59.077Z,101134.94
2022-12-27T08:32:29.410Z,101129.75
2022-12-27T08:35:12.097Z,101130.63
2022-12-27T08:37:52.078Z,101135.03
2022-12-27T08:40:22.054Z,101136.72
2022-12-27T08:42:51.553Z,101139.53
2022-12-27T08:45:21.051Z,101134.34
2022-12-27T08:47:50.252Z,101136.13
2022-12-27T08:50:20.558Z,101141.44
2022-12-27T08:52:52.383Z,101138.94
2022-12-27T08:55:22.145Z,101145.00
2022-12-27T08:57:53.009Z,101145.22
2022-12-27T09:00:22.744Z,101132.34
2022-12-27T09:02:52.686Z,101139.34
2022-12-27T09:05:22.901Z,101141.13
2022-12-27T09:07:55.837Z,101136.16
2022-12-27T09:10:26.481Z,101147.53
2022-12-27T09:12:55.895Z,101143.34
2022-12-27T09:15:25.534Z,101148.75
2022-12-27T09:17:54.843Z,101145.56
2022-12-27T09:20:25.443Z,101149.38
2022-12-27T09:22:57.170Z,101144.50
2022-12-27T09:25:27.450Z,101153.47
2022-12-27T09:27:57.107Z,101153.78
2022-12-27T09:30:29.304Z,101162.75
2022-12-27T09:33:00.660Z,101157.97
2022-12-27T09:35:31.777Z,101158.38
2022-12-27T09:38:05.981Z,101160.34
2022-12-27T09:40:35.979Z,101159.88
2022-12-27T09:43:22.249Z,101163.56
2022-12-27T09:46:00.111Z,101145.78
2022-12-27T09:48:33.773Z,101149.56
2022-12-27T09:51:08.703Z,101149.97
2022-12-27T09:53:44.934Z,101149.38
2022-12-27T09:56:21.771Z,101147.16
2022-12-27T09:58:54.500Z,101143.16
2022-12-27T10:01:30.945Z,101144.28
2022-12-27T10:04:01.622Z,101146.34
2022-12-27T10:06:45.612Z,101149.13
2022-12-27T10:09:46.890Z,101137.22
2022-12-27T10:12:32.073Z,101136.75
2022-12-27T10:15:17.054Z,101147.50
2022-12-27T10:17:56.250Z,101133.94
2022-12-27T10:20:38.774Z,101141.09
2022-12-27T10:23:12.672Z,101134.50
2022-12-27T10:25:46.826Z,101146.88
2022-12-27T10:28:19.674Z,101140.25
2022-12-27T10:30:49.326Z,101137.94
2022-12-27T10:33:22.351Z,101128.72
2022-12-27T10:35:51.883Z,101121.22
2022-12-27T10:38:22.622Z,101124.00
2022-12-27T10:41:00.992Z,101134.78
2022-12-27T10:43:37.821Z,101145.34
2022-12-27T10:46:15.284Z,101129.03
2022-12-27T10:49:22.043Z,101135.31
2022-12-27T10:51:49.485Z,101140.72
2022-12-27T10:54:25.566Z,101148.69
2022-12-27T10:56:58.235Z,101141.06
2022-12-27T10:59:30.139Z,101136.06
2022-12-27T11:02:19.197Z,101143.25
2022-12-27T11:05:00.365Z,101141.63
2022-12-27T11:07:33.243Z,101129.63
2022-12-27T11:10:18.210Z,101138.50
2022-12-27T11:13:00.652Z,101135.88
2022-12-27T11:15:33.711Z,101150.69
2022-12-27T11:18:11.091Z,101136.94
2022-12-27T11:20:46.223Z,101137.16
2022-12-27T11:23:19.505Z,101146.03
2022-12-27T11:25:55.443Z,101147.91
2022-12-27T11:28:35.356Z,101139.28
2022-12-27T11:31:10.296Z,101142.00
2022-12-27T11:33:42.530Z,101154.28
2022-12-27T11:36:13.597Z,101148.28
2022-12-27T11:38:48.504Z,101146.66
2022-12-27T11:41:27.920Z,101142.44
2022-12-27T11:44:05.560Z,101140.00
2022-12-27T11:46:42.968Z,101140.22
2022-12-27T11:49:22.008Z,101143.16
2022-12-27T11:52:26.721Z,101149.50
2022-12-27T11:55:28.099Z,101147.19
2022-12-27T11:58:19.923Z,101139.63
2022-12-27T12:01:03.654Z,101144.19
2022-12-27T12:04:04.113Z,101143.50
2022-12-27T12:06:45.885Z,101136.66
2022-12-27T12:09:42.159Z,101130.66
2022-12-27T12:12:47.363Z,101122.91
2022-12-27T12:16:04.030Z,101121.13
2022-12-27T12:18:52.541Z,101116.81
2022-12-27T12:21:28.220Z,101118.53
2022-12-27T12:24:35.783Z,101114.13
2022-12-27T12:27:26.560Z,101111.53
2022-12-27T12:30:13.842Z,101112.31
2022-12-27T12:33:01.070Z,101115.03
2022-12-27T12:35:48.508Z,101114.31
2022-12-27T12:38:23.851Z,101110.88
2022-12-27T12:41:32.205Z,101112.69
2022-12-27T12:44:44.681Z,101098.84
2022-12-27T12:47:30.790Z,101111.03
2022-12-27T12:50:28.511Z,101101.53
2022-12-27T12:53:24.411Z,101097.22
2022-12-27T12:56:04.988Z,101093.78
2022-12-27T12:58:47.819Z,101092.19
2022-12-27T13:01:45.092Z,101088.75
2022-12-27T13:04:46.584Z,101072.34
2022-12-27T13:07:37.783Z,101067.19
2022-12-27T13:10:46.883Z,101068.00
2022-12-27T13:13:27.416Z,101071.50
2022-12-27T13:16:12.381Z,101057.69
2022-12-27T13:18:52.831Z,101055.88
2022-12-27T13:21:41.330Z,101042.84
2022-12-27T13:24:18.605Z,101043.84
2022-12-27T13:26:58.965Z,101037.84
2022-12-27T13:29:48.272Z,101024.72
2022-12-27T13:32:29.141Z,101023.00
2022-12-27T13:35:09.565Z,101022.22
2022-12-27T13:37:53.682Z,101014.41
2022-12-27T13:40:49.109Z,101015.28
2022-12-27T13:43:39.500Z,101010.97
2022-12-27T13:46:29.070Z,101015.34
2022-12-27T13:49:10.820Z,101005.91
2022-12-27T13:51:48.986Z,101006.81
2022-12-27T13:54:57.248Z,101006.06
2022-12-27T13:57:49.031Z,100999.09
2022-12-27T14:00:21.471Z,101001.59
2022-12-27T14:03:23.723Z,101005.13
2022-12-27T14:06:34.629Z,101006.91
2022-12-27T14:09:29.056Z,101003.31
2022-12-27T14:12:19.152Z,101008.53
2022-12-27T14:14:50.782Z,101004.13
2022-12-27T14:17:37.039Z,101008.47
2022-12-27T14:20:23.326Z,101007.53
2022-12-27T14:23:17.133Z,101006.66
2022-12-27T14:26:31.789Z,101002.28
2022-12-27T14:29:49.069Z,101002.31
2022-12-27T14:32:50.537Z,100994.44
2022-12-27T14:35:55.595Z,100996.22
2022-12-27T14:38:55.191Z,100996.31
2022-12-27T14:41:54.833Z,100985.91
2022-12-27T14:45:04.711Z,100987.69
2022-12-27T14:48:19.856Z,100984.28
2022-12-27T14:51:59.422Z,100980.75
2022-12-27T14:55:08.274Z,100980.75
2022-12-27T14:57:48.644Z,100977.22
2022-12-27T15:00:20.840Z,100978.09
2022-12-27T15:03:09.311Z,100971.00
2022-12-27T15:05:51.651Z,100969.13
2022-12-27T15:08:37.518Z,100957.66
2022-12-27T15:11:41.713Z,100956.66
2022-12-27T15:14:28.087Z,100964.25
2022-12-27T15:17:07.369Z,100961.47
2022-12-27T15:20:07.498Z,100962.19
2022-12-27T15:22:49.832Z,100955.94
2022-12-27T15:25:30.073Z,100964.53
2022-12-27T15:28:09.750Z,100959.19
2022-12-27T15:30:52.186Z,100967.81
2022-12-27T15:33:31.564Z,100965.13
2022-12-27T15:36:09.648Z,100959.84
2022-12-27T15:38:54.112Z,100962.34
2022-12-27T15:41:34.059Z,100949.25
2022-12-27T15:44:32.264Z,100949.97
2022-12-27T15:47:48.020Z,100949.03
2022-12-27T15:50:30.994Z,100946.31
2022-12-27T15:53:28.887Z,100949.75
2022-12-27T15:56:25.331Z,100945.34
2022-12-27T15:59:47.806Z,100944.53
2022-12-27T16:02:36.628Z,100945.34
2022-12-27T16:05:36.268Z,100935.75
2022-12-27T16:08:31.947Z,100935.75
2022-12-27T16:11:02.583Z,100925.25
2022-12-27T16:13:48.537Z,100936.47
2022-12-27T16:17:01.786Z,100933.78
2022-12-27T16:19:55.182Z,100932.78
2022-12-27T16:22:36.122Z,100945.81
2022-12-27T16:25:30.735Z,100942.31
2022-12-27T16:28:05.141Z,100937.00
2022-12-27T16:30:45.874Z,100937.00
2022-12-27T16:33:37.939Z,100936.22
2022-12-27T16:37:21.967Z,100936.22
2022-12-27T16:40:10.801Z,100941.31
2022-12-27T16:43:31.676Z,100937.84
2022-12-27T16:46:30.756Z,100931.66
2022-12-27T16:49:42.760Z,100940.28
2022-12-27T16:52:28.529Z,100939.28
2022-12-27T16:55:15.486Z,100939.19
2022-12-27T16:57:48.130Z,100940.91
2022-12-27T17:00:39.278Z,100944.41
2022-12-27T17:03:32.007Z,100944.41
2022-12-27T17:06:31.404Z,100946.94
2022-12-27T17:09:33.905Z,100943.25
2022-12-27T17:12:20.795Z,100946.59
2022-12-27T17:14:56.388Z,100935.13
2022-12-27T17:17:26.898Z,100940.22
2022-12-27T17:20:02.475Z,100937.47
2022-12-27T17:22:36.077Z,100927.78
2022-12-27T17:25:07.476Z,100932.81
2022-12-27T17:27:58.372Z,100930.94
2022-12-27T17:30:37.087Z,100934.16
2022-12-27T17:33:25.612Z,100927.97
2022-12-27T17:36:23.897Z,100926.03
2022-12-27T17:39:06.155Z,100923.25
2022-12-27T17:42:06.341Z,100924.88
2022-12-27T17:44:54.160Z,100926.41
2022-12-27T17:47:53.845Z,100915.72
2022-12-27T17:50:28.136Z,100910.38
2022-12-27T17:53:34.652Z,100909.31
2022-12-27T17:56:34.536Z,100913.53
2022-12-27T17:59:07.141Z,100906.34
2022-12-27T18:01:45.948Z,100907.06
2022-12-27T18:04:24.135Z,100906.06
2022-12-27T18:07:00.000Z,100914.59
2022-12-27T18:09:38.463Z,100904.91
2022-12-27T18:12:16.619Z,100914.31
2022-12-27T18:14:50.482Z,100897.78
2022-12-27T18:17:29.372Z,100904.59
2022-12-27T18:19:58.441Z,100900.16
2022-12-27T18:22:28.531Z,100895.78
2022-12-27T18:24:58.484Z,100889.59
2022-12-27T18:27:28.419Z,100893.81
2022-12-27T18:29:58.911Z,100885.03
2022-12-27T18:32:30.459Z,100876.28
2022-12-27T18:35:02.851Z,100872.69
2022-12-27T18:37:37.032Z,100876.06
2022-12-27T18:40:07.369Z,100860.31
2022-12-27T18:42:41.588Z,100867.13
2022-12-27T18:45:21.446Z,100865.31
2022-12-27T18:47:54.331Z,100860.00
2022-12-27T18:50:26.613Z,100863.34
2022-12-27T18:53:02.753Z,100860.56
2022-12-27T18:55:32.376Z,100861.38
2022-12-27T18:58:06.058Z,100856.91
2022-12-27T19:00:50.306Z,100864.59
2022-12-27T19:03:22.055Z,100862.81
2022-12-27T19:06:13.883Z,100867.03
2022-12-27T19:08:49.425Z,100864.31
2022-12-27T19:11:22.438Z,100860.84
2022-12-27T19:13:56.453Z,100858.13
2022-12-27T19:16:30.318Z,100854.59
2022-12-27T19:19:08.182Z,100850.19
2022-12-27T19:21:41.210Z,100838.78
2022-12-27T19:24:22.487Z,100842.22
2022-12-27T19:26:52.207Z,100839.50
2022-12-27T19:29:24.946Z,100829.06
2022-12-27T19:31:57.691Z,100829.84
2022-12-27T19:34:31.305Z,100828.84
2022-12-27T19:37:02.816Z,100820.19
2022-12-27T19:39:36.050Z,100816.59
2022-12-27T19:42:08.475Z,100809.63
2022-12-27T19:44:39.304Z,100813.94
2022-12-27T19:47:13.872Z,100818.22
2022-12-27T19:49:44.899Z,100817.31
2022-12-27T19:52:18.309Z,100805.03
2022-12-27T19:54:48.428Z,100809.28
2022-12-27T19:57:18.493Z,100795.31
2022-12-27T19:59:47.773Z,100791.72
2022-12-27T20:02:18.423Z,100796.91
2022-12-27T20:04:49.708Z,100795.81
2022-12-27T20:07:22.466Z,100796.53
2022-12-27T20:09:51.311Z,100790.28
2022-12-27T20:12:21.319Z,100797.97
2022-12-27T20:14:51.586Z,100791.00
2022-12-27T20:17:21.784Z,100787.41
2022-12-27T20:19:52.401Z,100783.94
2022-12-27T20:22:21.496Z,100773.38
2022-12-27T20:24:51.583Z,100772.38
2022-12-27T20:27:23.833Z,100778.28
2022-12-27T20:29:53.694Z,100769.41
2022-12-27T20:32:24.278Z,100764.16
2022-12-27T20:34:56.610Z,100759.75
2022-12-27T20:37:25.882Z,100760.56
2022-12-27T20:39:56.033Z,100757.88
2022-12-27T20:42:29.156Z,100746.59
2022-12-27T20:44:59.125Z,100744.81
2022-12-27T20:47:31.862Z,100742.22
2022-12-27T20:50:03.675Z,100744.81
2022-12-27T20:52:34.193Z,100745.72
2022-12-27T20:55:03.555Z,100743.00
2022-12-27T20:57:32.706Z,100730.03
2022-12-27T21:00:02.887Z,100743.00
2022-12-27T21:02:32.728Z,100736.06
2022-12-27T21:05:03.208Z,100729.97
2022-12-27T21:07:33.236Z,100730.88
2022-12-27T21:10:02.811Z,100718.72
2022-12-27T21:12:32.533Z,100715.28
2022-12-27T21:15:03.079Z,100710.09
2022-12-27T21:17:33.601Z,100710.09
2022-12-27T21:20:07.060Z,100701.44
2022-12-27T21:22:37.011Z,100705.81
2022-12-27T21:25:06.773Z,100708.41
2022-12-27T21:27:35.463Z,100706.69
2022-12-27T21:30:06.050Z,100700.72
2022-12-27T21:32:34.997Z,100707.63
2022-12-27T21:35:06.316Z,100708.50
2022-12-27T21:37:35.545Z,100699.84
2022-12-27T21:40:05.762Z,100693.81
2022-12-27T21:42:34.782Z,100692.94
2022-12-27T21:45:03.603Z,100680.03
2022-12-27T21:47:33.633Z,100687.03
2022-12-27T21:50:05.319Z,100675.75
2022-12-27T21:52:35.416Z,100672.34
2022-12-27T21:55:04.868Z,100673.22
2022-12-27T21:57:33.810Z,100668.94
2022-12-27T22:00:04.748Z,100665.56
2022-12-27T22:02:34.642Z,100655.16
2022-12-27T22:05:06.274Z,100660.38
2022-12-27T22:07:35.444Z,100661.16
2022-12-27T22:10:07.473Z,100657.75
2022-12-27T22:12:37.571Z,100658.56
2022-12-27T22:15:07.713Z,100652.47
2022-12-27T22:17:37.577Z,100646.50
2022-12-27T22:20:10.062Z,100644.78
2022-12-27T22:22:39.041Z,100632.59
2022-12-27T22:25:10.563Z,100641.22
2022-12-27T22:27:39.356Z,100636.13
2022-12-27T22:30:09.518Z,100630.94
2022-12-27T22:32:38.908Z,100628.34
2022-12-27T22:35:10.352Z,100624.81
2022-12-27T22:37:39.303Z,100618.84
2022-12-27T22:40:25.960Z,100605.94
2022-12-27T22:42:58.684Z,100604.25
2022-12-27T22:45:29.469Z,100591.28
2022-12-27T22:47:59.200Z,100593.06
2022-12-27T22:50:31.263Z,100588.69
2022-12-27T22:53:00.765Z,100587.09
2022-12-27T22:55:30.476Z,100579.31
2022-12-27T22:57:59.586Z,100572.31
2022-12-27T23:00:29.051Z,100567.22
2022-12-27T23:02:58.280Z,100550.81
2022-12-27T23:05:30.144Z,100562.09
2022-12-27T23:08:04.588Z,100551.72
2022-12-27T23:10:37.936Z,100536.13
2022-12-27T23:13:06.925Z,100530.94
2022-12-27T23:15:35.351Z,100542.25
2022-12-27T23:18:04.510Z,100530.94
2022-12-27T23:20:36.196Z,100524.97
2022-12-27T23:23:04.963Z,100518.97
2022-12-27T23:25:33.952Z,100517.25
2022-12-27T23:28:03.595Z,100504.38
2022-12-27T23:30:33.070Z,100498.34
2022-12-27T23:33:02.794Z,100489.78
2022-12-27T23:35:31.693Z,100475.09
2022-12-27T23:38:02.754Z,100477.78
2022-12-27T23:40:32.003Z,100478.72
2022-12-27T23:43:18.722Z,100458.06
2022-12-27T23:45:49.569Z,100456.44
2022-12-27T23:48:19.069Z,100453.03
2022-12-27T23:50:49.026Z,100437.56
2022-12-27T23:53:19.632Z,100438.53
2022-12-27T23:55:57.818Z,100432.59
2022-12-27T23:58:27.670Z,100424.88
